createdAt,value
2022-10-11T00:00:06.743Z,99659.80
2022-10-11T00:00:50.266Z,99658.75
2022-10-11T00:01:37.543Z,99657.28
2022-10-11T00:02:10.922Z,99659.04
2022-10-11T00:02:44.186Z,99662.34
2022-10-11T00:03:17.477Z,99662.66
2022-10-11T00:03:50.547Z,99661.95
2022-10-11T00:04:23.893Z,99665.30
2022-10-11T00:04:57.310Z,99661.21
2022-10-11T00:05:30.902Z,99655.53
2022-10-11T00:06:06.462Z,99657.73
2022-10-11T00:06:40.159Z,99657.40
2022-10-11T00:07:13.461Z,99653.25
2022-10-11T00:07:46.665Z,99652.77
2022-10-11T00:08:20.315Z,99655.42
2022-10-11T00:08:53.752Z,99657.98
2022-10-11T00:09:26.832Z,99659.09
2022-10-11T00:09:59.861Z,99662.20
2022-10-11T00:10:35.710Z,99660.80
2022-10-11T00:11:10.533Z,99659.00
2022-10-11T00:11:43.765Z,99658.81
2022-10-11T00:12:16.977Z,99654.85
2022-10-11T00:12:52.505Z,99655.76
2022-10-11T00:13:26.804Z,99656.28
2022-10-11T00:14:00.003Z,99655.70
2022-10-11T00:14:34.314Z,99656.61
2022-10-11T00:15:09.869Z,99657.07
2022-10-11T00:15:43.186Z,99651.38
2022-10-11T00:16:16.334Z,99651.49
2022-10-11T00:16:49.365Z,99649.46
2022-10-11T00:17:22.889Z,99649.88
2022-10-11T00:17:56.680Z,99649.64
2022-10-11T00:18:30.083Z,99649.09
2022-10-11T00:19:03.764Z,99651.87
2022-10-11T00:19:37.028Z,99650.72
2022-10-11T00:20:11.009Z,99647.59
2022-10-11T00:20:44.348Z,99650.83
2022-10-11T00:21:17.862Z,99647.36
2022-10-11T00:21:51.119Z,99648.20
2022-10-11T00:22:24.306Z,99649.39
2022-10-11T00:22:57.603Z,99646.19
2022-10-11T00:23:30.956Z,99649.26
2022-10-11T00:24:04.917Z,99645.24
2022-10-11T00:24:37.999Z,99647.23
2022-10-11T00:25:12.789Z,99644.36
2022-10-11T00:25:45.910Z,99645.83
2022-10-11T00:26:19.223Z,99645.88
2022-10-11T00:26:52.588Z,99645.80
2022-10-11T00:27:25.980Z,99644.34
2022-10-11T00:27:59.219Z,99644.27
2022-10-11T00:28:33.200Z,99644.70
2022-10-11T00:29:06.355Z,99645.23
2022-10-11T00:29:39.556Z,99645.66
2022-10-11T00:30:13.549Z,99646.05
2022-10-11T00:30:46.788Z,99646.95
2022-10-11T00:31:20.010Z,99648.95
2022-10-11T00:31:53.150Z,99647.61
2022-10-11T00:32:26.640Z,99645.68
2022-10-11T00:32:59.848Z,99648.48
2022-10-11T00:33:33.369Z,99652.74
2022-10-11T00:34:06.889Z,99649.54
2022-10-11T00:34:39.967Z,99650.84
2022-10-11T00:35:13.646Z,99647.27
2022-10-11T00:35:46.995Z,99647.02
2022-10-11T00:36:20.263Z,99646.41
2022-10-11T00:36:53.463Z,99644.42
2022-10-11T00:37:26.712Z,99641.84
2022-10-11T00:37:59.801Z,99649.05
2022-10-11T00:38:33.182Z,99643.08
2022-10-11T00:39:06.326Z,99642.08
2022-10-11T00:39:39.429Z,99645.86
2022-10-11T00:40:18.970Z,99642.10
2022-10-11T00:40:52.377Z,99641.48
2022-10-11T00:41:25.470Z,99641.95
2022-10-11T00:41:58.837Z,99639.04
2022-10-11T00:42:31.804Z,99638.73
2022-10-11T00:43:05.337Z,99635.19
2022-10-11T00:43:39.165Z,99636.08
2022-10-11T00:44:25.358Z,99637.67
2022-10-11T00:45:26.521Z,99637.00
2022-10-11T00:46:08.198Z,99635.65
2022-10-11T00:46:45.935Z,99635.04
2022-10-11T00:47:22.428Z,99634.00
2022-10-11T00:47:57.852Z,99635.11
2022-10-11T00:48:45.116Z,99636.64
2022-10-11T00:49:24.845Z,99640.45
2022-10-11T00:50:01.465Z,99639.27
2022-10-11T00:50:36.129Z,99632.02
2022-10-11T00:51:20.647Z,99632.38
2022-10-11T00:51:59.292Z,99635.84
2022-10-11T00:52:40.913Z,99634.04
2022-10-11T00:53:14.117Z,99634.27
2022-10-11T00:53:50.143Z,99631.58
2022-10-11T00:54:27.597Z,99633.32
2022-10-11T00:55:07.668Z,99628.59
2022-10-11T00:55:52.244Z,99628.48
2022-10-11T00:56:31.555Z,99630.80
2022-10-11T00:57:08.551Z,99629.77
2022-10-11T00:57:44.643Z,99626.95
2022-10-11T00:58:19.411Z,99626.67
2022-10-11T00:58:54.640Z,99627.70
2022-10-11T00:59:31.787Z,99629.27
2022-10-11T01:00:08.163Z,99626.84
2022-10-11T01:00:41.410Z,99625.10
2022-10-11T01:01:14.822Z,99626.83
2022-10-11T01:01:48.166Z,99626.51
2022-10-11T01:02:23.522Z,99626.70
2022-10-11T01:02:57.482Z,99626.84
2022-10-11T01:03:33.190Z,99626.73
2022-10-11T01:04:06.719Z,99628.24
2022-10-11T01:04:40.141Z,99625.59
2022-10-11T01:05:30.731Z,99626.40
2022-10-11T01:06:04.669Z,99627.14
2022-10-11T01:06:38.116Z,99625.84
2022-10-11T01:07:11.969Z,99623.84
2022-10-11T01:07:48.117Z,99628.98
2022-10-11T01:08:21.323Z,99629.56
2022-10-11T01:08:55.082Z,99626.73
2022-10-11T01:09:28.715Z,99625.89
2022-10-11T01:10:01.752Z,99626.25
2022-10-11T01:10:35.364Z,99626.52
2022-10-11T01:11:14.859Z,99624.92
2022-10-11T01:11:50.757Z,99623.60
2022-10-11T01:12:26.881Z,99623.31
2022-10-11T01:13:00.014Z,99618.88
2022-10-11T01:13:40.741Z,99616.15
2022-10-11T01:14:29.224Z,99615.95
2022-10-11T01:15:31.384Z,99616.48
2022-10-11T01:16:04.668Z,99613.38
2022-10-11T01:17:16.254Z,99610.15
2022-10-11T01:18:08.714Z,99610.45
2022-10-11T01:18:53.472Z,99611.91
2022-10-11T01:19:38.416Z,99615.05
2022-10-11T01:20:26.714Z,99615.48
2022-10-11T01:21:13.606Z,99612.58
2022-10-11T01:21:46.639Z,99611.83
2022-10-11T01:22:25.465Z,99612.54
2022-10-11T01:23:21.500Z,99611.69
2022-10-11T01:24:23.355Z,99613.75
2022-10-11T01:25:27.919Z,99613.36
2022-10-11T01:26:22.425Z,99612.29
2022-10-11T01:27:25.547Z,99610.74
2022-10-11T01:28:19.604Z,99612.25
2022-10-11T01:28:59.686Z,99611.52
2022-10-11T01:30:07.831Z,99609.39
2022-10-11T01:30:42.454Z,99608.60
2022-10-11T01:31:49.829Z,99608.85
2022-10-11T01:32:35.399Z,99608.16
2022-10-11T01:33:35.384Z,99608.16
2022-10-11T01:34:35.977Z,99606.81
2022-10-11T01:35:19.111Z,99610.30
2022-10-11T01:36:28.198Z,99609.87
2022-10-11T01:37:23.102Z,99608.27
2022-10-11T01:38:03.057Z,99610.64
2022-10-11T01:38:46.081Z,99606.73
2022-10-11T01:39:31.754Z,99610.16
2022-10-11T01:40:11.697Z,99606.18
2022-10-11T01:40:54.668Z,99606.61
2022-10-11T01:41:31.446Z,99603.88
2022-10-11T01:42:10.095Z,99605.00
2022-10-11T01:42:44.416Z,99606.33
2022-10-11T01:43:20.261Z,99605.89
2022-10-11T01:43:59.008Z,99605.34
2022-10-11T01:44:34.589Z,99607.62
2022-10-11T01:45:15.821Z,99604.54
2022-10-11T01:45:53.127Z,99604.83
2022-10-11T01:46:27.551Z,99605.02
2022-10-11T01:47:00.677Z,99604.46
2022-10-11T01:47:33.873Z,99606.35
2022-10-11T01:48:09.611Z,99602.68
2022-10-11T01:48:57.056Z,99602.58
2022-10-11T01:49:30.169Z,99602.20
2022-10-11T01:50:03.757Z,99601.25
2022-10-11T01:50:44.160Z,99605.69
2022-10-11T01:51:21.597Z,99601.79
2022-10-11T01:51:59.902Z,99603.43
2022-10-11T01:52:36.362Z,99602.36
2022-10-11T01:53:31.443Z,99602.08
2022-10-11T01:55:07.541Z,99597.08
2022-10-11T01:55:50.643Z,99599.27
2022-10-11T01:56:34.161Z,99598.77
2022-10-11T01:57:31.846Z,99598.39
2022-10-11T01:58:15.951Z,99598.63
2022-10-11T01:59:34.347Z,99595.65
2022-10-11T02:00:14.630Z,99599.11
2022-10-11T02:00:56.722Z,99600.71
2022-10-11T02:01:32.693Z,99597.39
2022-10-11T02:02:24.414Z,99593.79
2022-10-11T02:03:19.156Z,99595.73
2022-10-11T02:04:07.356Z,99600.09
2022-10-11T02:04:58.646Z,99598.95
2022-10-11T02:05:40.731Z,99597.70
2022-10-11T02:06:56.518Z,99596.73
2022-10-11T02:08:01.668Z,99589.91
2022-10-11T02:08:39.017Z,99595.07
2022-10-11T02:09:17.534Z,99595.46
2022-10-11T02:10:10.947Z,99594.39
2022-10-11T02:11:09.890Z,99595.05
2022-10-11T02:11:44.685Z,99591.11
2022-10-11T02:12:25.951Z,99589.63
2022-10-11T02:13:09.898Z,99590.23
2022-10-11T02:13:48.942Z,99589.44
2022-10-11T02:14:31.510Z,99589.79
2022-10-11T02:15:09.560Z,99588.73
2022-10-11T02:15:44.875Z,99588.11
2022-10-11T02:16:24.622Z,99587.24
2022-10-11T02:17:04.447Z,99588.88
2022-10-11T02:17:45.245Z,99588.19
2022-10-11T02:18:20.633Z,99584.27
2022-10-11T02:18:57.137Z,99587.03
2022-10-11T02:19:37.166Z,99586.44
2022-10-11T02:20:15.537Z,99588.03
2022-10-11T02:20:50.657Z,99582.16
2022-10-11T02:21:25.000Z,99583.73
2022-10-11T02:22:03.960Z,99584.90
2022-10-11T02:22:41.267Z,99585.87
2022-10-11T02:23:20.673Z,99584.73
2022-10-11T02:24:06.926Z,99586.80
2022-10-11T02:24:44.936Z,99588.08
2022-10-11T02:25:24.963Z,99587.23
2022-10-11T02:25:58.222Z,99585.63
2022-10-11T02:26:34.869Z,99585.46
2022-10-11T02:27:10.725Z,99582.02
2022-10-11T02:27:47.496Z,99584.92
2022-10-11T02:28:29.242Z,99584.37
2022-10-11T02:29:06.018Z,99584.67
2022-10-11T02:29:44.346Z,99580.36
2022-10-11T02:30:18.104Z,99585.15
2022-10-11T02:30:53.840Z,99582.34
2022-10-11T02:31:30.708Z,99580.19
2022-10-11T02:32:04.537Z,99584.17
2022-10-11T02:32:41.938Z,99583.33
2022-10-11T02:33:21.750Z,99584.59
2022-10-11T02:34:05.471Z,99584.48
2022-10-11T02:34:45.286Z,99581.97
2022-10-11T02:35:19.787Z,99581.12
2022-10-11T02:36:03.314Z,99583.23
2022-10-11T02:36:49.104Z,99581.64
2022-10-11T02:37:36.829Z,99586.86
2022-10-11T02:38:18.000Z,99587.72
2022-10-11T02:38:59.310Z,99587.70
2022-10-11T02:39:36.744Z,99587.73
2022-10-11T02:40:31.426Z,99585.77
2022-10-11T02:41:25.751Z,99585.36
2022-10-11T02:42:05.432Z,99583.94
2022-10-11T02:42:51.787Z,99588.30
2022-10-11T02:43:38.562Z,99589.70
2022-10-11T02:44:19.140Z,99592.05
2022-10-11T02:45:01.044Z,99589.50
2022-10-11T02:45:39.737Z,99588.45
2022-10-11T02:46:15.225Z,99591.92
2022-10-11T02:46:51.781Z,99594.49
2022-10-11T02:47:25.095Z,99589.44
2022-10-11T02:47:59.115Z,99588.95
2022-10-11T02:48:33.914Z,99590.30
2022-10-11T02:49:08.874Z,99590.65
2022-10-11T02:49:42.169Z,99592.55
2022-10-11T02:50:16.258Z,99588.16
2022-10-11T02:50:49.502Z,99589.38
2022-10-11T02:51:22.730Z,99591.30
2022-10-11T02:51:57.464Z,99589.38
2022-10-11T02:52:30.577Z,99588.45
2022-10-11T02:53:04.903Z,99591.39
2022-10-11T02:53:37.988Z,99593.85
2022-10-11T02:54:11.300Z,99588.81
2022-10-11T02:54:44.374Z,99593.61
2022-10-11T02:55:17.635Z,99593.39
2022-10-11T02:55:52.747Z,99593.00
2022-10-11T02:56:25.914Z,99593.08
2022-10-11T02:56:58.928Z,99591.70
2022-10-11T02:57:32.122Z,99594.42
2022-10-11T02:58:05.141Z,99589.02
2022-10-11T02:58:38.280Z,99591.23
2022-10-11T02:59:11.835Z,99591.77
2022-10-11T02:59:45.033Z,99590.44
2022-10-11T03:00:18.109Z,99588.73
2022-10-11T03:00:51.120Z,99592.89
2022-10-11T03:01:24.478Z,99594.07
2022-10-11T03:01:57.731Z,99589.92
2022-10-11T03:02:30.988Z,99590.14
2022-10-11T03:03:04.291Z,99592.84
2022-10-11T03:03:37.375Z,99593.91
2022-10-11T03:04:10.478Z,99593.75
2022-10-11T03:04:43.505Z,99594.98
2022-10-11T03:05:16.649Z,99597.70
2022-10-11T03:05:49.717Z,99595.91
2022-10-11T03:06:22.960Z,99595.01
2022-10-11T03:06:55.967Z,99594.92
2022-10-11T03:07:29.146Z,99595.85
2022-10-11T03:08:02.299Z,99593.20
2022-10-11T03:08:35.653Z,99597.77
2022-10-11T03:09:08.872Z,99598.63
2022-10-11T03:09:42.111Z,99597.52
2022-10-11T03:10:15.247Z,99598.27
2022-10-11T03:10:48.547Z,99597.99
2022-10-11T03:11:21.703Z,99595.64
2022-10-11T03:11:54.933Z,99596.63
2022-10-11T03:12:28.064Z,99597.75
2022-10-11T03:13:01.235Z,99596.95
2022-10-11T03:13:34.496Z,99598.29
2022-10-11T03:14:07.661Z,99601.54
2022-10-11T03:14:41.027Z,99599.28
2022-10-11T03:15:14.263Z,99597.88
2022-10-11T03:16:02.223Z,99601.35
2022-10-11T03:16:40.282Z,99598.95
2022-10-11T03:17:34.947Z,99602.89
2022-10-11T03:18:06.746Z,99599.70
2022-10-11T03:18:39.984Z,99598.97
2022-10-11T03:19:18.337Z,99601.16
2022-10-11T03:19:52.300Z,99603.58
2022-10-11T03:20:26.395Z,99601.68
2022-10-11T03:20:59.716Z,99601.89
2022-10-11T03:21:32.967Z,99600.77
2022-10-11T03:22:06.092Z,99601.04
2022-10-11T03:22:39.264Z,99602.02
2022-10-11T03:23:13.742Z,99602.19
2022-10-11T03:23:46.856Z,99600.52
2022-10-11T03:24:19.903Z,99601.86
2022-10-11T03:24:53.643Z,99600.48
2022-10-11T03:25:26.915Z,99599.50
2022-10-11T03:26:00.242Z,99599.10
2022-10-11T03:26:33.349Z,99600.94
2022-10-11T03:27:06.554Z,99602.73
2022-10-11T03:27:40.226Z,99603.77
2022-10-11T03:28:13.472Z,99602.59
2022-10-11T03:28:46.650Z,99600.56
2022-10-11T03:29:19.840Z,99603.40
2022-10-11T03:29:52.943Z,99603.26
2022-10-11T03:30:26.515Z,99603.81
2022-10-11T03:30:59.836Z,99605.95
2022-10-11T03:31:33.081Z,99602.69
2022-10-11T03:32:06.264Z,99600.59
2022-10-11T03:32:39.545Z,99600.73
2022-10-11T03:33:12.920Z,99600.42
2022-10-11T03:33:46.266Z,99601.23
2022-10-11T03:34:19.326Z,99600.81
2022-10-11T03:34:52.569Z,99602.08
2022-10-11T03:35:25.650Z,99605.15
2022-10-11T03:35:58.864Z,99604.52
2022-10-11T03:36:32.173Z,99604.88
2022-10-11T03:37:05.462Z,99608.89
2022-10-11T03:37:38.873Z,99607.52
2022-10-11T03:38:14.578Z,99607.05
2022-10-11T03:38:47.744Z,99605.27
2022-10-11T03:39:21.324Z,99607.34
2022-10-11T03:39:54.416Z,99608.75
2022-10-11T03:40:27.504Z,99611.10
2022-10-11T03:41:00.650Z,99608.75
2022-10-11T03:41:33.726Z,99609.98
2022-10-11T03:42:06.926Z,99610.27
2022-10-11T03:42:40.599Z,99609.41
2022-10-11T03:43:14.030Z,99611.81
2022-10-11T03:43:47.237Z,99613.11
2022-10-11T03:44:20.291Z,99611.98
2022-10-11T03:44:53.423Z,99612.89
2022-10-11T03:45:26.529Z,99611.24
2022-10-11T03:45:59.545Z,99610.56
2022-10-11T03:46:32.884Z,99612.91
2022-10-11T03:47:06.344Z,99611.67
2022-10-11T03:47:39.741Z,99611.84
2022-10-11T03:48:12.859Z,99615.41
2022-10-11T03:48:45.915Z,99611.73
2022-10-11T03:49:19.113Z,99611.38
2022-10-11T03:49:52.318Z,99612.77
2022-10-11T03:50:25.543Z,99611.95
2022-10-11T03:50:58.717Z,99611.31
2022-10-11T03:51:32.040Z,99615.14
2022-10-11T03:52:05.193Z,99615.16
2022-10-11T03:52:38.337Z,99614.50
2022-10-11T03:53:11.750Z,99614.19
2022-10-11T03:53:45.334Z,99612.32
2022-10-11T03:54:18.373Z,99611.48
2022-10-11T03:54:51.506Z,99614.97
2022-10-11T03:55:24.617Z,99612.04
2022-10-11T03:55:57.827Z,99610.49
2022-10-11T03:56:31.050Z,99609.48
2022-10-11T03:57:04.311Z,99610.52
2022-10-11T03:57:37.500Z,99611.12
2022-10-11T03:58:10.563Z,99606.36
2022-10-11T03:58:43.677Z,99609.64
2022-10-11T03:59:16.865Z,99607.16
2022-10-11T03:59:50.289Z,99608.58
2022-10-11T04:00:23.562Z,99608.58
2022-10-11T04:00:56.764Z,99608.54
2022-10-11T04:01:30.867Z,99608.70
2022-10-11T04:02:04.668Z,99608.86
2022-10-11T04:02:39.297Z,99612.74
2022-10-11T04:03:13.237Z,99608.92
2022-10-11T04:03:46.376Z,99609.35
2022-10-11T04:04:19.394Z,99610.43
2022-10-11T04:04:52.642Z,99611.52
2022-10-11T04:05:26.004Z,99612.94
2022-10-11T04:05:59.236Z,99615.64
2022-10-11T04:06:33.020Z,99613.82
2022-10-11T04:07:06.275Z,99612.10
2022-10-11T04:07:40.395Z,99613.75
2022-10-11T04:08:13.487Z,99612.27
2022-10-11T04:08:46.575Z,99612.85
2022-10-11T04:09:19.653Z,99616.12
2022-10-11T04:09:53.046Z,99616.36
2022-10-11T04:10:26.260Z,99612.13
2022-10-11T04:10:59.480Z,99614.05
2022-10-11T04:11:33.095Z,99613.47
2022-10-11T04:12:06.381Z,99618.97
2022-10-11T04:12:39.774Z,99617.60
2022-10-11T04:13:13.221Z,99617.95
2022-10-11T04:13:46.556Z,99616.16
2022-10-11T04:14:19.697Z,99617.13
2022-10-11T04:14:52.797Z,99614.83
2022-10-11T04:15:25.924Z,99612.81
2022-10-11T04:15:59.068Z,99617.84
2022-10-11T04:16:32.813Z,99616.83
2022-10-11T04:17:06.086Z,99619.05
2022-10-11T04:17:39.956Z,99619.49
2022-10-11T04:18:13.308Z,99618.37
2022-10-11T04:18:46.433Z,99618.71
2022-10-11T04:19:19.752Z,99622.63
2022-10-11T04:19:52.919Z,99616.04
2022-10-11T04:20:26.000Z,99617.16
2022-10-11T04:20:58.977Z,99620.04
2022-10-11T04:21:32.367Z,99620.10
2022-10-11T04:22:06.320Z,99617.00
2022-10-11T04:22:39.643Z,99620.27
2022-10-11T04:23:13.062Z,99623.41
2022-10-11T04:23:46.079Z,99623.79
2022-10-11T04:24:19.275Z,99621.67
2022-10-11T04:24:52.402Z,99620.66
2022-10-11T04:25:25.748Z,99624.79
2022-10-11T04:25:59.756Z,99625.63
2022-10-11T04:26:32.950Z,99624.40
2022-10-11T04:27:06.625Z,99628.02
2022-10-11T04:27:39.958Z,99627.33
2022-10-11T04:28:13.302Z,99626.55
2022-10-11T04:28:46.778Z,99622.38
2022-10-11T04:29:20.051Z,99624.02
2022-10-11T04:29:53.817Z,99623.25
2022-10-11T04:30:27.645Z,99627.45
2022-10-11T04:31:01.292Z,99622.91
2022-10-11T04:31:34.790Z,99626.12
2022-10-11T04:32:07.827Z,99625.30
2022-10-11T04:32:40.880Z,99629.15
2022-10-11T04:33:14.163Z,99625.80
2022-10-11T04:33:47.934Z,99626.44
2022-10-11T04:34:21.036Z,99629.67
2022-10-11T04:34:54.141Z,99626.48
2022-10-11T04:35:27.242Z,99625.30
2022-10-11T04:36:00.388Z,99623.84
2022-10-11T04:36:34.258Z,99625.58
2022-10-11T04:37:07.352Z,99625.73
2022-10-11T04:37:40.544Z,99624.94
2022-10-11T04:38:13.602Z,99625.13
2022-10-11T04:38:46.715Z,99623.92
2022-10-11T04:39:19.876Z,99627.30
2022-10-11T04:39:53.021Z,99626.39
2022-10-11T04:40:26.132Z,99628.52
2022-10-11T04:41:10.521Z,99628.13
2022-10-11T04:41:43.634Z,99629.95
2022-10-11T04:42:16.857Z,99631.27
2022-10-11T04:42:50.820Z,99631.23
2022-10-11T04:43:23.991Z,99630.62
2022-10-11T04:43:57.415Z,99630.78
2022-10-11T04:44:31.515Z,99633.02
2022-10-11T04:45:05.195Z,99635.52
2022-10-11T04:45:38.358Z,99630.81
2022-10-11T04:46:11.960Z,99628.29
2022-10-11T04:46:45.261Z,99633.40
2022-10-11T04:47:18.588Z,99634.86
2022-10-11T04:47:51.662Z,99634.02
2022-10-11T04:48:24.806Z,99632.52
2022-10-11T04:48:57.981Z,99632.18
2022-10-11T04:49:31.110Z,99635.04
2022-10-11T04:50:04.937Z,99632.05
2022-10-11T04:50:38.316Z,99633.54
2022-10-11T04:51:11.571Z,99631.67
2022-10-11T04:51:44.913Z,99632.25
2022-10-11T04:52:21.074Z,99630.77
2022-10-11T04:52:56.560Z,99628.98
2022-10-11T04:53:30.182Z,99625.87
2022-10-11T04:54:03.284Z,99629.52
2022-10-11T04:54:36.973Z,99632.98
2022-10-11T04:55:11.174Z,99631.30
2022-10-11T04:55:44.162Z,99628.96
2022-10-11T04:56:18.858Z,99628.64
2022-10-11T04:56:51.919Z,99627.83
2022-10-11T04:57:25.025Z,99630.97
2022-10-11T04:57:58.321Z,99630.29
2022-10-11T04:58:32.714Z,99631.38
2022-10-11T04:59:05.867Z,99630.80
2022-10-11T04:59:38.989Z,99628.75
2022-10-11T05:00:12.682Z,99631.55
2022-10-11T05:00:45.892Z,99633.61
2022-10-11T05:01:19.080Z,99633.95
2022-10-11T05:01:52.329Z,99632.08
2022-10-11T05:02:25.780Z,99634.73
2022-10-11T05:02:59.188Z,99635.37
2022-10-11T05:03:32.986Z,99633.71
2022-10-11T05:04:06.221Z,99633.98
2022-10-11T05:04:39.306Z,99640.00
2022-10-11T05:05:17.495Z,99637.50
2022-10-11T05:05:51.131Z,99640.84
2022-10-11T05:06:24.202Z,99641.52
2022-10-11T05:06:57.321Z,99641.84
2022-10-11T05:07:30.518Z,99640.04
2022-10-11T05:08:03.597Z,99641.26
2022-10-11T05:08:36.830Z,99639.30
2022-10-11T05:09:10.082Z,99641.94
2022-10-11T05:09:43.437Z,99640.80
2022-10-11T05:10:16.716Z,99642.31
2022-10-11T05:11:01.291Z,99646.36
2022-10-11T05:11:34.563Z,99643.44
2022-10-11T05:12:07.808Z,99643.83
2022-10-11T05:12:40.946Z,99643.39
2022-10-11T05:13:14.045Z,99644.55
2022-10-11T05:13:47.682Z,99646.85
2022-10-11T05:14:20.929Z,99645.17
2022-10-11T05:14:54.217Z,99644.00
2022-10-11T05:15:27.450Z,99642.24
2022-10-11T05:16:01.044Z,99643.20
2022-10-11T05:16:34.320Z,99647.38
2022-10-11T05:17:07.524Z,99647.47
2022-10-11T05:17:40.767Z,99645.47
2022-10-11T05:18:13.977Z,99647.83
2022-10-11T05:18:47.182Z,99648.81
2022-10-11T05:19:20.412Z,99647.66
2022-10-11T05:19:53.509Z,99650.77
2022-10-11T05:20:26.938Z,99649.22
2022-10-11T05:21:19.632Z,99649.22
2022-10-11T05:21:52.756Z,99652.16
2022-10-11T05:22:25.966Z,99653.42
2022-10-11T05:22:59.037Z,99654.44
2022-10-11T05:23:34.117Z,99652.84
2022-10-11T05:24:07.724Z,99651.83
2022-10-11T05:24:40.770Z,99652.02
2022-10-11T05:25:13.896Z,99652.59
2022-10-11T05:25:47.247Z,99654.08
2022-10-11T05:26:21.208Z,99652.27
2022-10-11T05:26:54.339Z,99651.00
2022-10-11T05:27:27.482Z,99653.26
2022-10-11T05:28:01.639Z,99652.20
2022-10-11T05:28:34.933Z,99653.27
2022-10-11T05:29:08.110Z,99657.30
2022-10-11T05:29:41.265Z,99653.59
2022-10-11T05:30:14.423Z,99657.16
2022-10-11T05:30:47.538Z,99654.70
2022-10-11T05:31:21.352Z,99657.29
2022-10-11T05:31:54.627Z,99660.14
2022-10-11T05:32:28.218Z,99657.11
2022-10-11T05:33:01.405Z,99659.45
2022-10-11T05:33:34.887Z,99660.52
2022-10-11T05:34:08.191Z,99660.38
2022-10-11T05:34:41.395Z,99660.34
2022-10-11T05:35:14.873Z,99660.32
2022-10-11T05:35:48.045Z,99662.34
2022-10-11T05:36:21.592Z,99660.11
2022-10-11T05:36:56.614Z,99662.88
2022-10-11T05:37:29.691Z,99664.79
2022-10-11T05:38:02.840Z,99664.74
2022-10-11T05:38:37.008Z,99663.39
2022-10-11T05:39:10.168Z,99666.64
2022-10-11T05:39:43.622Z,99663.94
2022-10-11T05:40:17.008Z,99663.73
2022-10-11T05:40:50.311Z,99663.59
2022-10-11T05:41:23.430Z,99670.92
2022-10-11T05:41:56.588Z,99667.57
2022-10-11T05:42:29.639Z,99665.78
2022-10-11T05:43:02.878Z,99669.13
2022-10-11T05:43:36.192Z,99668.51
2022-10-11T05:44:09.435Z,99668.59
2022-10-11T05:44:42.759Z,99668.84
2022-10-11T05:45:15.958Z,99668.36
2022-10-11T05:45:49.976Z,99668.60
2022-10-11T05:46:23.303Z,99668.43
2022-10-11T05:46:56.511Z,99669.56
2022-10-11T05:47:29.604Z,99671.63
2022-10-11T05:48:02.760Z,99672.58
2022-10-11T05:48:35.959Z,99669.85
2022-10-11T05:49:09.016Z,99673.57
2022-10-11T05:49:42.723Z,99673.94
2022-10-11T05:50:17.195Z,99675.88
2022-10-11T05:50:51.900Z,99676.12
2022-10-11T05:51:24.912Z,99679.06
2022-10-11T05:51:58.367Z,99679.60
2022-10-11T05:52:32.110Z,99676.58
2022-10-11T05:53:06.062Z,99678.39
2022-10-11T05:53:39.722Z,99676.59
2022-10-11T05:54:12.847Z,99678.52
2022-10-11T05:54:46.112Z,99681.22
2022-10-11T05:55:19.588Z,99678.65
2022-10-11T05:55:52.916Z,99678.66
2022-10-11T05:56:26.843Z,99681.55
2022-10-11T05:57:00.183Z,99681.67
2022-10-11T05:57:33.550Z,99681.13
2022-10-11T05:58:08.026Z,99679.88
2022-10-11T05:58:41.206Z,99679.86
2022-10-11T05:59:14.796Z,99679.29
2022-10-11T05:59:47.868Z,99677.21
2022-10-11T06:00:21.246Z,99677.70
2022-10-11T06:00:55.106Z,99679.61
2022-10-11T06:01:28.844Z,99679.54
2022-10-11T06:02:02.140Z,99676.60
2022-10-11T06:02:35.258Z,99678.09
2022-10-11T06:03:11.284Z,99678.23
2022-10-11T06:03:44.700Z,99681.15
2022-10-11T06:04:19.218Z,99682.88
2022-10-11T06:04:52.376Z,99680.03
2022-10-11T06:05:25.840Z,99682.75
2022-10-11T06:06:02.852Z,99681.52
2022-10-11T06:06:36.155Z,99682.85
2022-10-11T06:07:09.351Z,99685.08
2022-10-11T06:07:43.448Z,99686.43
2022-10-11T06:08:16.933Z,99684.88
2022-10-11T06:08:50.281Z,99686.36
2022-10-11T06:09:23.464Z,99683.75
2022-10-11T06:09:56.741Z,99685.58
2022-10-11T06:10:29.973Z,99685.73
2022-10-11T06:11:17.272Z,99687.71
2022-10-11T06:11:51.043Z,99687.20
2022-10-11T06:12:24.291Z,99686.81
2022-10-11T06:12:57.706Z,99689.91
2022-10-11T06:13:30.782Z,99688.47
2022-10-11T06:14:03.963Z,99689.30
2022-10-11T06:14:37.338Z,99689.08
2022-10-11T06:15:11.665Z,99692.48
2022-10-11T06:15:44.940Z,99691.13
2022-10-11T06:16:18.093Z,99692.77
2022-10-11T06:16:51.230Z,99690.80
2022-10-11T06:17:24.549Z,99693.14
2022-10-11T06:17:59.562Z,99698.52
2022-10-11T06:18:33.207Z,99698.05
2022-10-11T06:19:06.344Z,99699.13
2022-10-11T06:19:39.462Z,99698.54
2022-10-11T06:20:13.010Z,99700.31
2022-10-11T06:20:46.233Z,99700.39
2022-10-11T06:21:20.010Z,99698.73
2022-10-11T06:21:53.519Z,99701.63
2022-10-11T06:22:26.996Z,99702.56
2022-10-11T06:23:00.694Z,99702.52
2022-10-11T06:23:33.902Z,99701.54
2022-10-11T06:24:07.362Z,99702.23
2022-10-11T06:24:40.471Z,99703.83
2022-10-11T06:25:13.775Z,99704.06
2022-10-11T06:25:58.159Z,99703.48
2022-10-11T06:26:31.417Z,99706.20
2022-10-11T06:27:04.588Z,99705.57
2022-10-11T06:27:38.151Z,99707.34
2022-10-11T06:28:11.499Z,99708.71
2022-10-11T06:28:45.111Z,99705.90
2022-10-11T06:29:18.469Z,99705.60
2022-10-11T06:29:51.605Z,99708.84
2022-10-11T06:30:24.850Z,99707.14
2022-10-11T06:30:58.529Z,99709.84
2022-10-11T06:31:32.383Z,99710.34
2022-10-11T06:32:06.125Z,99710.71
2022-10-11T06:32:39.404Z,99708.80
2022-10-11T06:33:12.699Z,99709.94
2022-10-11T06:33:45.878Z,99707.54
2022-10-11T06:34:19.038Z,99711.77
2022-10-11T06:34:52.206Z,99712.50
2022-10-11T06:35:26.171Z,99709.86
2022-10-11T06:36:01.829Z,99713.38
2022-10-11T06:36:35.304Z,99713.84
2022-10-11T06:37:08.503Z,99717.41
2022-10-11T06:37:41.632Z,99718.14
2022-10-11T06:38:14.674Z,99719.11
2022-10-11T06:38:47.788Z,99718.13
2022-10-11T06:39:20.947Z,99713.48
2022-10-11T06:39:54.102Z,99719.30
2022-10-11T06:40:27.319Z,99718.61
2022-10-11T06:41:17.544Z,99721.25
2022-10-11T06:41:50.938Z,99719.81
2022-10-11T06:42:24.258Z,99725.88
2022-10-11T06:42:57.424Z,99723.02
2022-10-11T06:43:30.499Z,99722.77
2022-10-11T06:44:03.708Z,99724.39
2022-10-11T06:44:37.656Z,99723.54
2022-10-11T06:45:11.057Z,99724.86
2022-10-11T06:45:44.090Z,99727.98
2022-10-11T06:46:21.961Z,99727.05
2022-10-11T06:46:54.961Z,99724.77
2022-10-11T06:47:28.039Z,99725.11
2022-10-11T06:48:02.204Z,99727.94
2022-10-11T06:48:39.213Z,99726.84
2022-10-11T06:49:12.503Z,99728.02
2022-10-11T06:49:45.769Z,99728.17
2022-10-11T06:50:34.805Z,99727.29
2022-10-11T06:51:13.970Z,99727.54
2022-10-11T06:51:47.168Z,99729.33
2022-10-11T06:52:20.282Z,99729.52
2022-10-11T06:52:53.465Z,99727.98
2022-10-11T06:53:27.374Z,99729.05
2022-10-11T06:54:02.044Z,99732.92
2022-10-11T06:54:35.117Z,99732.83
2022-10-11T06:55:08.969Z,99731.84
2022-10-11T06:55:41.926Z,99733.05
2022-10-11T06:56:15.336Z,99732.89
2022-10-11T06:56:48.455Z,99735.48
2022-10-11T06:57:21.701Z,99733.90
2022-10-11T06:57:54.929Z,99733.72
2022-10-11T06:58:28.827Z,99733.86
2022-10-11T06:59:02.300Z,99733.61
2022-10-11T06:59:35.312Z,99735.48
2022-10-11T07:00:12.476Z,99734.54
2022-10-11T07:00:46.110Z,99732.18
2022-10-11T07:01:21.804Z,99734.05
2022-10-11T07:01:55.098Z,99733.16